Time;durP1;ratioP1;P1;durP2;ratioP2;P2;SDS_P1;SDS_P2;PMS_P1;PMS_P2;Temp;Humidity;BMP_temperature;BMP_pressure;BME280_temperature;BME280_humidity;BME280_pressure;Samples;Min_cycle;Max_cycle;Signal;HPM_P1;HPM_P2
2020/12/12 00:01:38;;;;;;;56.60;46.00;;;;;;;5.88;88.96;99224.31;5036243;28;20056;-81
2020/12/12 00:04:42;;;;;;;58.58;45.95;;;;;;;5.94;89.10;99214.94;5036248;28;20384;-79
2020/12/12 00:07:46;;;;;;;56.58;45.38;;;;;;;5.94;89.15;99200.78;5040009;28;20048;-81
2020/12/12 00:10:51;;;;;;;57.45;46.15;;;;;;;5.93;89.02;99209.72;5049360;28;20506;-81
2020/12/12 00:13:55;;;;;;;56.45;45.47;;;;;;;5.91;89.06;99220.53;5037116;28;20076;-78
2020/12/12 00:17:00;;;;;;;57.60;45.55;;;;;;;5.87;88.76;99214.66;5036878;28;20052;-79
2020/12/12 00:20:04;;;;;;;59.47;48.10;;;;;;;5.74;88.94;99213.13;5049589;28;20056;-79
2020/12/12 00:23:08;;;;;;;55.97;45.17;;;;;;;5.76;88.90;99212.03;5057034;28;20052;-82
2020/12/12 00:26:16;;;;;;;;;;;;;;;5.73;88.98;99209.63;5057113;28;20052;-82
2020/12/12 00:29:20;;;;;;;54.83;45.60;;;;;;;5.85;89.21;99208.59;5054281;28;19921;-82
2020/12/12 00:32:24;;;;;;;57.08;47.45;;;;;;;5.87;89.18;99196.00;5043662;28;20056;-81
2020/12/12 00:35:29;;;;;;;58.25;48.28;;;;;;;5.85;89.15;99205.09;5043155;28;20052;-82
2020/12/12 00:38:34;;;;;;;60.95;50.40;;;;;;;5.82;89.23;99192.88;5056258;28;20486;-79
2020/12/12 00:41:39;;;;;;;62.20;49.13;;;;;;;5.85;89.35;99200.59;5056314;28;20052;-82
2020/12/12 00:44:44;;;;;;;57.47;48.13;;;;;;;5.74;89.71;99186.50;5044062;28;20052;-79
2020/12/12 00:47:48;;;;;;;64.30;50.33;;;;;;;5.74;89.70;99189.16;5035203;28;20045;-80
2020/12/12 00:50:53;;;;;;;57.55;47.38;;;;;;;5.79;89.76;99194.94;5036194;28;20041;-79
2020/12/12 00:53:57;;;;;;;60.95;49.03;;;;;;;5.77;89.89;99191.56;5023873;28;20061;-79
2020/12/12 00:57:02;;;;;;;57.30;47.03;;;;;;;5.72;89.88;99191.97;5039559;28;20044;-80
2020/12/12 01:00:06;;;;;;;57.13;47.22;;;;;;;5.76;89.60;99193.38;5054648;28;20498;-81
2020/12/12 01:03:10;;;;;;;58.25;49.45;;;;;;;5.75;89.66;99193.53;5073027;28;20060;-82
2020/12/12 01:06:17;;;;;;;57.20;47.75;;;;;;;5.68;89.90;99185.22;5069275;28;20510;-82
2020/12/12 01:09:22;;;;;;;56.38;46.45;;;;;;;5.67;89.83;99188.88;5043019;28;20048;-82
2020/12/12 01:12:26;;;;;;;58.83;48.47;;;;;;;5.62;89.75;99182.25;5055433;28;20048;-79
2020/12/12 01:15:31;;;;;;;58.30;47.20;;;;;;;5.63;89.85;99191.94;5055790;28;20056;-79
2020/12/12 01:18:35;;;;;;;56.53;46.45;;;;;;;5.58;90.01;99194.13;5055551;28;20056;-81
2020/12/12 01:21:40;;;;;;;58.58;47.80;;;;;;;5.58;89.68;99194.97;5055575;28;20055;-79
2020/12/12 01:24:44;;;;;;;59.25;47.15;;;;;;;5.59;90.08;99178.03;5055257;28;20052;-79
2020/12/12 01:27:50;;;;;;;57.67;46.08;;;;;;;5.68;89.96;99181.69;5055472;28;20120;-80
2020/12/12 01:30:54;;;;;;;54.88;45.75;;;;;;;5.73;89.94;99169.69;5055307;28;20490;-82
2020/12/12 01:33:58;;;;;;;62.85;49.90;;;;;;;5.71;89.82;99176.97;5055438;28;20052;-83
2020/12/12 01:37:03;;;;;;;60.55;47.90;;;;;;;5.72;89.77;99178.66;5055145;28;20056;-79
2020/12/12 01:40:07;;;;;;;56.72;48.05;;;;;;;5.79;89.60;99176.31;5055275;28;20052;-79
2020/12/12 01:43:12;;;;;;;58.83;46.97;;;;;;;5.76;89.25;99165.91;5054884;28;20051;-80
2020/12/12 01:46:35;;;;;;;59.10;48.13;;;;;;;5.78;89.40;99161.28;5054738;28;20045;-79
2020/12/12 01:49:39;;;;;;;56.72;46.20;;;;;;;5.72;89.37;99152.03;5054948;28;20060;-81
2020/12/12 01:52:50;;;;;;;57.15;45.50;;;;;;;5.64;89.57;99148.34;5054838;28;20048;-79
2020/12/12 01:55:54;;;;;;;56.30;46.20;;;;;;;5.78;89.29;99155.97;5054806;28;20052;-80
2020/12/12 01:58:59;;;;;;;60.50;48.38;;;;;;;5.84;89.14;99145.69;5054907;28;20048;-79
2020/12/12 02:02:07;;;;;;;59.53;47.85;;;;;;;5.82;89.26;99144.09;5054741;28;20056;-80
2020/12/12 02:05:38;;;;;;;59.03;47.92;;;;;;;5.82;89.48;99136.94;5042362;28;20119;-81
2020/12/12 02:08:44;;;;;;;64.07;49.22;;;;;;;5.83;89.20;99127.13;5054149;28;20411;-78
2020/12/12 02:11:49;;;;;;;59.88;49.05;;;;;;;5.92;89.51;99138.81;5054500;28;20048;-79
2020/12/12 02:14:53;;;;;;;59.85;47.20;;;;;;;5.89;89.64;99127.47;5059327;28;20043;-83
2020/12/12 02:17:57;;;;;;;60.22;49.60;;;;;;;5.85;89.38;99123.38;5074364;28;20059;-81
2020/12/12 02:21:02;;;;;;;64.07;50.60;;;;;;;5.82;89.26;99123.63;5081481;28;20055;-78
2020/12/12 02:24:06;;;;;;;65.32;50.15;;;;;;;5.87;89.71;99120.59;5074137;28;20047;-78
2020/12/12 02:27:11;;;;;;;62.42;47.28;;;;;;;5.86;89.88;99111.75;5074360;28;20056;-79
2020/12/12 02:30:16;;;;;;;65.47;49.83;;;;;;;5.92;89.29;99129.03;5061970;28;20052;-78
2020/12/12 02:33:21;;;;;;;64.32;51.25;;;;;;;5.89;89.79;99124.81;5073826;28;20067;-82
2020/12/12 02:36:25;;;;;;;65.50;50.83;;;;;;;5.88;89.31;99123.13;5073842;28;20067;-79
2020/12/12 02:39:29;;;;;;;62.03;49.42;;;;;;;5.85;89.81;99123.38;5074189;28;20395;-79
2020/12/12 02:42:34;;;;;;;63.22;49.03;;;;;;;5.89;89.71;99124.81;5074285;28;20051;-82
2020/12/12 02:45:39;;;;;;;67.47;50.25;;;;;;;5.92;89.69;99117.53;5061679;28;20498;-79
2020/12/12 02:48:43;;;;;;;65.78;51.22;;;;;;;5.89;89.64;99119.50;5073995;28;20052;-78
2020/12/12 02:51:48;;;;;;;70.53;51.38;;;;;;;5.93;89.82;99113.88;5073931;28;20103;-78
2020/12/12 02:54:52;;;;;;;66.22;51.65;;;;;;;5.90;90.30;99114.97;5073287;28;20506;-79
2020/12/12 02:57:56;;;;;;;67.00;50.70;;;;;;;5.82;90.32;99099.69;5073339;28;20055;-81
2020/12/12 03:01:00;;;;;;;72.43;51.92;;;;;;;5.86;89.95;99106.44;5061487;28;20146;-80
2020/12/12 03:04:05;;;;;;;63.67;50.78;;;;;;;5.89;90.35;99105.31;5073767;28;20043;-79
2020/12/12 03:07:09;;;;;;;73.10;52.00;;;;;;;5.88;90.06;99099.16;5073682;28;20414;-79
2020/12/12 03:10:14;;;;;;;71.53;51.63;;;;;;;5.97;90.32;99101.97;5073686;28;20501;-78
2020/12/12 03:13:18;;;;;;;72.28;51.80;;;;;;;6.00;89.69;99104.38;5073450;28;20047;-80
2020/12/12 03:16:22;;;;;;;75.20;53.47;;;;;;;6.00;89.94;99099.88;5073821;28;20055;-79
2020/12/12 03:19:26;;;;;;;72.80;53.80;;;;;;;6.02;89.78;99095.28;5074214;28;20043;-80
2020/12/12 03:22:31;;;;;;;72.40;51.40;;;;;;;6.06;89.55;99093.16;5073023;28;20506;-80
2020/12/12 03:25:36;;;;;;;72.68;52.58;;;;;;;6.07;89.17;99094.84;5061334;28;20067;-81
2020/12/12 03:28:41;;;;;;;71.50;52.03;;;;;;;6.03;89.14;99088.94;5073230;28;20478;-82
2020/12/12 03:31:45;;;;;;;76.85;55.00;;;;;;;6.04;89.14;99087.13;5073401;28;20071;-82
2020/12/12 03:34:50;;;;;;;70.38;52.08;;;;;;;6.08;88.79;99080.53;5073147;28;20060;-81
2020/12/12 03:37:57;;;;;;;72.78;53.95;;;;;;;6.06;88.63;99093.16;5061470;28;20051;-82
2020/12/12 03:41:02;;;;;;;72.43;52.75;;;;;;;6.01;88.68;99090.91;5061087;28;20044;-81
2020/12/12 03:44:06;;;;;;;69.93;52.50;;;;;;;6.00;88.72;99091.88;5073159;28;20391;-82
2020/12/12 03:47:11;;;;;;;65.30;50.70;;;;;;;5.99;88.56;99090.22;5073614;28;20055;-81
2020/12/12 03:50:16;;;;;;;75.72;52.03;;;;;;;6.00;88.93;99085.75;5073634;28;20055;-82
2020/12/12 03:53:20;;;;;;;65.75;49.33;;;;;;;6.03;88.72;99085.44;5073121;28;20511;-82
2020/12/12 03:56:25;;;;;;;67.50;50.55;;;;;;;6.04;88.73;99087.13;5060662;28;20048;-81
2020/12/12 03:59:29;;;;;;;67.82;51.78;;;;;;;6.00;88.68;99078.56;5073100;28;20055;-81
2020/12/12 04:02:34;;;;;;;66.53;49.63;;;;;;;6.02;88.33;99083.78;5071595;28;20502;-81
2020/12/12 04:05:43;;;;;;;71.43;52.20;;;;;;;6.07;88.31;99081.53;5046337;28;20052;-82
2020/12/12 04:08:48;;;;;;;63.92;49.67;;;;;;;6.06;88.18;99077.19;5069238;28;20051;-84
2020/12/12 04:11:53;;;;;;;66.05;51.05;;;;;;;6.00;88.12;99075.09;5056087;28;20068;-84
2020/12/12 04:14:57;;;;;;;70.30;53.30;;;;;;;5.97;88.11;99081.53;5046701;28;20044;-81
2020/12/12 04:18:02;;;;;;;64.80;50.15;;;;;;;5.90;88.08;99069.72;5053030;28;20056;-81
2020/12/12 04:21:08;;;;;;;65.82;49.13;;;;;;;5.92;88.54;99077.59;5040899;28;20068;-82
2020/12/12 04:24:13;;;;;;;66.40;50.95;;;;;;;5.93;88.33;99079.25;5047029;28;20048;-81
2020/12/12 04:27:17;;;;;;;71.05;51.97;;;;;;;5.87;88.55;99081.50;5043502;28;20052;-85
2020/12/12 04:30:22;;;;;;;72.47;53.55;;;;;;;5.86;88.77;99082.47;5040872;28;20047;-83
2020/12/12 04:33:27;;;;;;;65.13;50.70;;;;;;;5.84;88.60;99081.78;5052861;28;20459;-83
2020/12/12 04:36:32;;;;;;;66.32;50.70;;;;;;;5.83;88.72;99069.41;5061861;28;20052;-81
2020/12/12 04:39:37;;;;;;;69.78;52.30;;;;;;;5.74;88.64;99078.19;5068638;28;20489;-82
2020/12/12 04:42:42;;;;;;;70.65;53.38;;;;;;;5.72;89.44;99082.81;5055737;28;20396;-82
2020/12/12 04:45:48;;;;;;;66.97;51.38;;;;;;;5.73;89.41;99075.66;5055274;28;20056;-84
2020/12/12 04:48:52;;;;;;;73.95;53.67;;;;;;;5.68;89.80;99086.72;5043530;28;20052;-82
2020/12/12 04:52:02;;;;;;;67.10;52.47;;;;;;;5.68;89.92;99081.38;5055631;28;20044;-82
2020/12/12 04:55:06;;;;;;;69.50;52.63;;;;;;;5.69;90.27;99083.09;5056432;28;20064;-83
2020/12/12 04:58:17;;;;;;;68.95;53.08;;;;;;;5.67;90.35;99079.72;5070684;28;20047;-83
2020/12/12 05:01:21;;;;;;;70.40;52.13;;;;;;;5.65;90.50;99084.31;5058938;28;20091;-82
2020/12/12 05:04:26;;;;;;;66.78;52.05;;;;;;;5.67;90.33;99089.53;5055926;28;20052;-84
2020/12/12 05:07:30;;;;;;;67.68;52.35;;;;;;;5.67;90.63;99085.06;5055959;28;20052;-83
2020/12/12 05:10:40;;;;;;;70.18;52.65;;;;;;;5.66;90.84;99087.81;5055881;28;20056;-84
2020/12/12 05:13:46;;;;;;;67.32;52.83;;;;;;;5.68;91.17;99086.72;5055709;28;20052;-82
2020/12/12 05:16:54;;;;;;;68.32;53.95;;;;;;;5.70;90.93;99084.75;5062405;28;20051;-84
2020/12/12 05:19:59;;;;;;;72.38;53.65;;;;;;;5.66;91.09;99088.69;5054752;28;20044;-84
2020/12/12 05:23:17;;;;;;;68.60;54.22;;;;;;;5.63;91.25;99091.59;5055440;28;20052;-84
2020/12/12 05:26:37;;;;;;;65.20;50.47;;;;;;;5.65;91.10;99091.47;5067689;28;20044;-83
2020/12/12 05:29:43;;;;;;;63.35;51.20;;;;;;;5.62;91.18;99086.41;5075573;28;20052;-81
2020/12/12 05:32:48;;;;;;;62.10;48.47;;;;;;;5.57;91.54;99084.16;5075493;28;20047;-82
2020/12/12 05:35:53;;;;;;;63.00;48.03;;;;;;;5.51;91.37;99081.19;5059487;28;20052;-84
2020/12/12 05:38:59;;;;;;;62.53;47.17;;;;;;;5.47;91.60;99082.44;5059328;28;20052;-84
2020/12/12 05:42:06;;;;;;;56.53;46.85;;;;;;;5.49;91.38;99086.66;5062708;28;20391;-83
2020/12/12 05:45:11;;;;;;;58.05;46.25;;;;;;;5.52;91.36;99086.38;5075038;28;20119;-84
2020/12/12 05:48:15;;;;;;;61.00;48.20;;;;;;;5.48;91.30;99084.94;5056033;28;20048;-84
2020/12/12 05:51:20;;;;;;;58.97;46.53;;;;;;;5.50;91.60;99077.69;5055132;28;20388;-84
2020/12/12 05:54:25;;;;;;;59.40;46.78;;;;;;;5.47;91.59;99079.78;5042798;28;20123;-82
2020/12/12 05:57:29;;;;;;;56.80;45.53;;;;;;;5.47;91.56;99083.28;5054490;28;20048;-83
2020/12/12 06:00:34;;;;;;;61.72;48.05;;;;;;;5.46;91.85;99086.06;5060805;28;20067;-81
2020/12/12 06:03:49;;;;;;;62.05;47.72;;;;;;;5.49;91.67;99085.81;5061604;28;20051;-83
2020/12/12 06:06:57;;;;;;;59.35;46.85;;;;;;;5.48;91.86;99086.78;5055649;28;20071;-83
2020/12/12 06:10:05;;;;;;;57.92;46.47;;;;;;;5.52;91.87;99090.88;5074871;28;20043;-83
2020/12/12 06:13:09;;;;;;;53.35;45.38;;;;;;;5.50;91.65;99088.34;5074905;28;20052;-83
2020/12/12 06:16:17;;;;;;;58.78;45.75;;;;;;;5.47;91.51;99090.41;5074759;28;20055;-83
2020/12/12 06:19:31;;;;;;;55.50;45.75;;;;;;;5.52;91.82;99085.53;5073831;28;20048;-83
2020/12/12 06:22:39;;;;;;;56.13;44.63;;;;;;;5.51;91.94;99090.00;5067180;28;20047;-83
2020/12/12 06:25:44;;;;;;;56.13;45.97;;;;;;;5.54;92.01;99088.91;5054101;28;20482;-82
2020/12/12 06:28:48;;;;;;;51.80;44.20;;;;;;;5.54;91.70;99089.75;5069228;28;20051;-83
2020/12/12 06:31:54;;;;;;;54.65;45.10;;;;;;;5.56;92.03;99089.59;5073692;28;20510;-84
2020/12/12 06:34:59;;;;;;;57.20;45.50;;;;;;;5.60;91.92;99094.56;5073829;28;20493;-82
2020/12/12 06:38:21;;;;;;;55.08;46.78;;;;;;;5.53;92.23;99093.38;5054080;28;20391;-82
2020/12/12 06:41:33;;;;;;;57.00;45.95;;;;;;;5.55;92.17;99094.13;5060441;28;20052;-83
2020/12/12 06:44:41;;;;;;;55.85;45.42;;;;;;;5.50;92.43;99087.50;5050282;28;20407;-83
2020/12/12 06:47:51;;;;;;;57.97;45.33;;;;;;;5.53;92.34;99090.72;5053892;28;20048;-83
2020/12/12 06:50:58;;;;;;;54.80;45.75;;;;;;;5.57;92.43;99089.50;5053822;28;20051;-83
2020/12/12 06:54:09;;;;;;;57.05;47.30;;;;;;;5.54;92.44;99094.22;5050153;28;20055;-83
2020/12/12 06:57:42;;;;;;;60.53;47.63;;;;;;;5.55;92.50;99090.59;5040272;28;20059;-81
2020/12/12 07:00:47;;;;;;;54.10;44.73;;;;;;;5.61;92.36;99109.53;5055073;28;20059;-83
2020/12/12 07:03:56;;;;;;;53.30;44.75;;;;;;;5.62;92.49;99097.91;5056324;28;20044;-83
2020/12/12 07:07:05;;;;;;;55.65;44.63;;;;;;;5.63;92.59;99102.25;5055785;28;20522;-83
2020/12/12 07:10:10;;;;;;;55.85;46.10;;;;;;;5.65;92.25;99102.94;5053589;28;20052;-83
2020/12/12 07:13:15;;;;;;;53.22;44.58;;;;;;;5.66;91.94;99103.78;5041334;28;20068;-82
2020/12/12 07:16:21;;;;;;;54.58;44.72;;;;;;;5.62;91.69;99105.91;5053023;28;20044;-84
2020/12/12 07:19:50;;;;;;;56.72;44.83;;;;;;;5.64;91.81;99111.09;5041502;28;20479;-81
2020/12/12 07:22:54;;;;;;;52.92;43.63;;;;;;;5.64;91.74;99113.75;5042779;28;20511;-82
2020/12/12 07:25:58;;;;;;;53.58;43.50;;;;;;;5.66;91.84;99109.97;5056985;28;20052;-83
2020/12/12 07:29:03;;;;;;;57.58;44.92;;;;;;;5.66;92.03;99117.97;5073557;28;20048;-82
2020/12/12 07:32:07;;;;;;;56.35;44.53;;;;;;;5.67;91.77;99116.16;5073394;28;20139;-81
2020/12/12 07:35:12;;;;;;;55.88;46.55;;;;;;;5.67;92.00;99121.47;5060628;28;20064;-82
2020/12/12 07:38:17;;;;;;;58.28;45.67;;;;;;;5.64;91.57;99119.06;5073375;28;20051;-84
2020/12/12 07:41:21;;;;;;;54.78;44.50;;;;;;;5.70;91.87;99127.34;5049448;28;20067;-83
2020/12/12 07:44:30;;;;;;;54.95;44.65;;;;;;;5.74;91.66;99127.94;5049295;28;20048;-83
2020/12/12 07:47:34;;;;;;;60.15;47.97;;;;;;;5.46;91.96;99133.97;5046052;28;20059;-78
2020/12/12 07:50:39;;;;;;;60.13;49.10;;;;;;;5.40;92.66;99132.69;5072847;28;20039;-77
2020/12/12 07:53:43;;;;;;;56.85;45.47;;;;;;;5.40;92.71;99139.81;5073237;28;20048;-78
2020/12/12 07:56:55;;;;;;;62.28;48.45;;;;;;;5.35;92.95;99131.41;5072766;28;20063;-76
2020/12/12 08:00:11;;;;;;;62.42;48.22;;;;;;;5.39;93.38;99140.78;5073080;28;20047;-77
2020/12/12 08:03:18;;;;;;;62.58;48.53;;;;;;;5.32;93.40;99143.13;5072877;28;20039;-77
2020/12/12 08:06:26;;;;;;;63.88;48.40;;;;;;;5.36;93.21;99144.56;5060592;28;20051;-77
2020/12/12 08:09:30;;;;;;;62.08;49.47;;;;;;;5.28;93.71;99144.38;5075288;28;20055;-78
2020/12/12 08:12:35;;;;;;;68.95;52.60;;;;;;;5.21;94.02;99153.84;5061746;28;20048;-77
2020/12/12 08:15:45;;;;;;;68.15;52.30;;;;;;;5.15;94.52;99152.56;5050143;28;20052;-78
2020/12/12 08:18:50;;;;;;;72.10;54.40;;;;;;;5.17;94.71;99160.41;5075672;28;20056;-77
2020/12/12 08:22:13;;;;;;;72.70;54.83;;;;;;;5.21;94.26;99162.66;5076787;28;20051;-78
2020/12/12 08:25:21;;;;;;;64.43;50.97;;;;;;;5.31;94.46;99162.72;5062791;28;20411;-78
2020/12/12 08:28:28;;;;;;;64.95;51.25;;;;;;;5.32;94.51;99156.44;5056408;28;20392;-79
2020/12/12 08:31:40;;;;;;;65.95;49.60;;;;;;;5.36;94.30;99155.19;5056110;28;20388;-86
2020/12/12 08:34:45;;;;;;;105.72;79.43;;;;;;;5.45;94.17;99156.25;5056328;28;20399;-78
2020/12/12 08:38:01;;;;;;;125.70;94.68;;;;;;;5.47;94.20;99160.47;5056691;28;20068;-80
2020/12/12 08:41:13;;;;;;;79.75;63.22;;;;;;;5.57;94.00;99171.16;5055997;28;20056;-80
2020/12/12 08:44:23;;;;;;;61.25;48.67;;;;;;;5.59;93.53;99167.38;5056360;28;20052;-80
2020/12/12 08:47:28;;;;;;;58.83;47.97;;;;;;;5.64;93.35;99177.63;5059280;28;20051;-83
2020/12/12 08:50:52;;;;;;;58.13;46.63;;;;;;;5.69;93.24;99178.91;5075613;28;20051;-79
2020/12/12 08:53:58;;;;;;;58.80;45.13;;;;;;;5.74;93.05;99181.19;5075609;28;20419;-82
2020/12/12 08:57:09;;;;;;;55.38;45.85;;;;;;;5.81;92.96;99183.19;5075438;28;20079;-80
2020/12/12 09:00:14;;;;;;;56.70;46.22;;;;;;;5.86;92.39;99191.66;5075563;28;20060;-80
2020/12/12 09:03:18;;;;;;;54.88;44.47;;;;;;;5.93;92.60;99186.63;5063280;28;20067;-79
2020/12/12 09:06:24;;;;;;;54.38;44.85;;;;;;;5.89;92.01;99185.22;5075022;28;20408;-81
2020/12/12 09:09:30;;;;;;;57.22;47.22;;;;;;;5.97;91.67;99192.53;5066124;28;20114;-81
2020/12/12 09:12:52;;;;;;;57.90;47.40;;;;;;;5.93;92.29;99196.41;5072238;28;20055;-76
2020/12/12 09:15:56;;;;;;;59.60;48.45;;;;;;;5.97;92.68;99187.22;5075145;28;20122;-80
2020/12/12 09:19:01;;;;;;;58.85;47.33;;;;;;;6.02;92.01;99185.84;5074213;28;20040;-81
2020/12/12 09:22:07;;;;;;;55.85;46.08;;;;;;;6.13;91.58;99200.84;5053495;28;20060;-81
2020/12/12 09:25:11;;;;;;;56.55;46.90;;;;;;;6.18;91.71;99198.63;5054329;28;20044;-77
2020/12/12 09:28:15;;;;;;;57.33;46.78;;;;;;;6.14;92.08;99200.72;5041577;28;20103;-79
2020/12/12 09:31:22;;;;;;;51.70;45.38;;;;;;;6.12;91.77;99192.03;5058637;28;20067;-81
2020/12/12 09:34:26;;;;;;;54.20;45.42;;;;;;;6.09;92.02;99197.63;5052873;28;20510;-82
2020/12/12 09:37:30;;;;;;;52.17;43.92;;;;;;;6.17;92.07;99202.28;5053784;28;20052;-80
2020/12/12 09:40:35;;;;;;;52.55;43.92;;;;;;;6.17;91.55;99187.13;5053190;28;20056;-80
2020/12/12 09:43:39;;;;;;;53.03;44.42;;;;;;;6.26;91.54;99198.81;5053740;28;20055;-82
2020/12/12 09:46:44;;;;;;;48.38;41.28;;;;;;;6.18;91.30;99188.81;5055120;28;20056;-79
2020/12/12 09:49:48;;;;;;;48.83;41.92;;;;;;;6.29;90.83;99194.06;5054270;28;20063;-79
2020/12/12 09:52:53;;;;;;;46.85;41.00;;;;;;;6.30;90.80;99193.06;5055090;28;20048;-78
2020/12/12 09:55:57;;;;;;;46.65;40.03;;;;;;;6.37;90.05;99186.19;5054954;28;20059;-78
2020/12/12 09:59:02;;;;;;;47.92;41.10;;;;;;;6.41;90.27;99174.31;5055277;28;20056;-79
2020/12/12 10:02:07;;;;;;;49.88;41.53;;;;;;;6.48;90.32;99178.09;5054681;28;20044;-78
2020/12/12 10:05:11;;;;;;;53.70;44.40;;;;;;;6.49;89.96;99174.44;5054772;28;20056;-79
2020/12/12 10:08:17;;;;;;;50.45;41.22;;;;;;;6.42;90.30;99173.31;5054952;28;20376;-79
2020/12/12 10:11:21;;;;;;;50.78;41.40;;;;;;;6.47;90.07;99186.22;5054948;28;20379;-78
2020/12/12 10:14:26;;;;;;;48.60;41.00;;;;;;;6.41;89.76;99187.63;5054407;28;20056;-78
2020/12/12 10:17:31;;;;;;;53.08;41.95;;;;;;;6.40;89.91;99185.94;5054739;28;20056;-79
2020/12/12 10:20:38;;;;;;;51.85;41.80;;;;;;;6.36;90.25;99194.34;5054599;28;20052;-79
2020/12/12 10:23:42;;;;;;;107.93;83.78;;;;;;;6.30;90.81;99189.53;5054503;28;20106;-81
2020/12/12 10:26:47;;;;;;;70.20;55.80;;;;;;;6.26;91.07;99180.16;5042349;28;20051;-80
2020/12/12 10:30:09;;;;;;;57.38;46.85;;;;;;;6.23;90.48;99183.94;5054288;28;20052;-80
2020/12/12 10:33:14;;;;;;;53.85;44.15;;;;;;;6.18;90.48;99182.63;5054355;28;20052;-79
2020/12/12 10:36:18;;;;;;;55.60;42.17;;;;;;;6.16;90.40;99182.78;5053880;28;20047;-79
2020/12/12 10:39:32;;;;;;;52.10;41.30;;;;;;;6.17;91.32;99176.47;5054271;28;20048;-80
2020/12/12 10:42:36;;;;;;;48.03;40.28;;;;;;;6.21;90.88;99185.88;5054361;28;20060;-79
2020/12/12 10:45:42;;;;;;;43.88;36.95;;;;;;;6.26;90.77;99181.00;5054459;28;20049;-81
2020/12/12 10:48:47;;;;;;;44.20;37.40;;;;;;;6.30;90.67;99179.72;5061549;28;20052;-79
2020/12/12 10:51:53;;;;;;;43.92;36.60;;;;;;;6.34;90.12;99180.31;5057139;28;20043;-83
2020/12/12 10:54:58;;;;;;;41.25;35.60;;;;;;;6.36;90.47;99181.88;5052496;28;20103;-81
2020/12/12 10:58:02;;;;;;;44.50;37.53;;;;;;;6.34;90.32;99175.00;5073808;28;20071;-82
2020/12/12 11:01:07;;;;;;;43.20;37.13;;;;;;;6.30;90.40;99177.06;5072611;28;20056;-81
2020/12/12 11:04:12;;;;;;;43.97;36.03;;;;;;;6.38;90.72;99187.03;5059028;28;20411;-80
2020/12/12 11:07:16;;;;;;;45.45;38.45;;;;;;;6.24;90.48;99182.13;5053658;28;20392;-80
2020/12/12 11:10:21;;;;;;;50.50;39.35;;;;;;;6.24;90.60;99193.63;5048418;28;20048;-80
2020/12/12 11:13:28;;;;;;;48.30;39.50;;;;;;;6.23;91.23;99188.41;5073578;28;20055;-80
2020/12/12 11:16:32;;;;;;;45.97;37.60;;;;;;;6.26;91.32;99194.31;5073206;28;20051;-81
2020/12/12 11:19:36;;;;;;;44.60;36.60;;;;;;;6.31;90.97;99192.09;5073535;28;20051;-80
2020/12/12 11:22:41;;;;;;;43.97;34.72;;;;;;;6.41;90.81;99200.97;5059415;28;20052;-77
2020/12/12 11:25:46;;;;;;;44.53;37.42;;;;;;;6.35;90.84;99192.66;5062387;28;20063;-79
2020/12/12 11:28:50;;;;;;;45.30;35.92;;;;;;;6.39;91.11;99196.75;5073254;28;20490;-81
2020/12/12 11:31:55;;;;;;;42.55;34.95;;;;;;;6.35;90.67;99198.81;5061086;28;20045;-80
2020/12/12 11:35:09;;;;;;;42.13;34.55;;;;;;;6.32;91.10;99193.75;5064938;28;20048;-78
2020/12/12 11:38:40;;;;;;;43.92;36.05;;;;;;;6.41;91.09;99186.78;5053142;28;20052;-78
2020/12/12 11:42:06;;;;;;;30.33;25.75;;;;;;;6.32;89.85;99192.94;5040768;28;20395;-77
2020/12/12 11:48:21;;;;;;;24.05;20.40;;;;;;;6.16;89.39;99189.94;5060254;28;20052;-78
2020/12/12 11:51:25;;;;;;;46.47;34.45;;;;;;;5.97;88.37;99177.41;5061883;28;20526;-78
2020/12/12 11:54:30;;;;;;;34.58;26.90;;;;;;;6.11;88.93;99186.81;5069251;28;20063;-78
2020/12/12 11:57:34;;;;;;;21.27;16.88;;;;;;;6.10;88.86;99174.50;5070441;28;20052;-78
2020/12/12 12:00:43;;;;;;;17.10;15.27;;;;;;;6.19;88.76;99187.00;5058842;28;20047;-79
2020/12/12 12:03:47;;;;;;;18.42;16.42;;;;;;;6.20;88.79;99178.00;5076442;28;20040;-77
2020/12/12 12:06:52;;;;;;;16.75;14.65;;;;;;;6.17;88.46;99183.63;5057096;28;20120;-77
2020/12/12 12:10:15;;;;;;;16.05;13.43;;;;;;;6.22;88.31;99178.75;5056427;28;20056;-77
2020/12/12 12:13:20;;;;;;;17.17;14.55;;;;;;;6.36;88.46;99184.53;5055717;28;20526;-77
2020/12/12 12:16:25;;;;;;;18.92;15.82;;;;;;;6.43;88.61;99174.16;5056616;28;20392;-77
2020/12/12 12:19:31;;;;;;;17.23;14.65;;;;;;;6.48;88.58;99178.09;5055652;28;20056;-77
2020/12/12 12:22:35;;;;;;;15.95;13.45;;;;;;;6.46;88.37;99184.56;5056643;28;20059;-77
2020/12/12 12:25:40;;;;;;;15.48;12.88;;;;;;;6.53;87.61;99186.53;5056555;28;20057;-78
2020/12/12 12:28:44;;;;;;;13.32;11.82;;;;;;;6.39;88.11;99180.75;5064649;28;20056;-78
2020/12/12 12:31:49;;;;;;;14.88;13.27;;;;;;;6.40;88.04;99180.59;5076013;28;20479;-81
2020/12/12 12:34:53;;;;;;;15.80;13.80;;;;;;;6.46;88.07;99179.22;5076479;28;20051;-80
2020/12/12 12:37:57;;;;;;;15.18;12.68;;;;;;;6.53;87.97;99175.88;5076424;28;20063;-81
2020/12/12 12:41:02;;;;;;;16.80;14.45;;;;;;;6.52;87.29;99179.50;5075423;28;20056;-81
2020/12/12 12:44:06;;;;;;;14.98;13.38;;;;;;;6.57;87.53;99180.94;5076409;28;20521;-83
2020/12/12 12:47:10;;;;;;;15.30;13.18;;;;;;;6.46;87.78;99195.22;5071841;28;20052;-80
2020/12/12 12:50:15;;;;;;;14.75;13.15;;;;;;;6.38;88.01;99182.56;5055928;28;20051;-82
2020/12/12 12:53:20;;;;;;;13.00;11.68;;;;;;;6.33;88.65;99198.13;5076027;28;20051;-81
2020/12/12 12:56:25;;;;;;;15.07;13.52;;;;;;;6.32;88.68;99193.75;5076247;28;20052;-83
2020/12/12 12:59:29;;;;;;;15.32;12.52;;;;;;;6.29;89.05;99190.53;5076144;28;20052;-83
2020/12/12 13:02:33;;;;;;;14.90;12.77;;;;;;;6.43;89.56;99198.13;5076442;28;20055;-82
2020/12/12 13:05:41;;;;;;;13.57;11.45;;;;;;;6.37;89.20;99190.72;5076159;28;20052;-80
2020/12/12 13:08:45;;;;;;;13.85;11.60;;;;;;;6.36;89.39;99191.69;5063237;28;20048;-77
2020/12/12 13:11:50;;;;;;;131.73;85.93;;;;;;;6.42;89.16;99191.97;5056239;28;20051;-79
2020/12/12 13:14:54;;;;;;;133.27;94.13;;;;;;;6.47;89.23;99191.53;5071945;28;20067;-79
2020/12/12 13:18:02;;;;;;;21.05;16.17;;;;;;;6.44;89.07;99192.66;5075154;28;20043;-78
2020/12/12 13:21:14;;;;;;;21.73;16.60;;;;;;;6.47;89.33;99196.88;5055342;28;20044;-79
2020/12/12 13:24:18;;;;;;;14.80;13.00;;;;;;;6.50;89.39;99200.13;5055076;28;20052;-78
2020/12/12 13:27:22;;;;;;;12.85;11.32;;;;;;;6.54;88.98;99192.72;5055438;28;20056;-78
2020/12/12 13:30:49;;;;;;;14.45;10.73;;;;;;;6.57;88.65;99199.59;5058450;28;20044;-79
2020/12/12 13:33:52;;;;;;;12.93;10.45;;;;;;;6.64;88.86;99198.88;5070488;28;20040;-79
2020/12/12 13:36:57;;;;;;;13.30;11.90;;;;;;;6.67;88.95;99203.94;5074799;28;20043;-79
2020/12/12 13:40:02;;;;;;;14.13;10.90;;;;;;;6.76;88.52;99197.78;5075606;28;20048;-78
2020/12/12 13:43:06;;;;;;;13.68;10.40;;;;;;;6.82;88.51;99202.56;5062617;28;20059;-79
2020/12/12 13:46:10;;;;;;;12.10;10.32;;;;;;;6.88;88.51;99202.00;5073397;28;20395;-79
2020/12/12 13:49:15;;;;;;;11.65;10.45;;;;;;;7.00;88.25;99203.56;5073816;28;20071;-78
2020/12/12 13:52:20;;;;;;;12.35;11.07;;;;;;;7.03;87.87;99197.09;5062595;28;20052;-79
2020/12/12 13:55:24;;;;;;;12.60;11.30;;;;;;;7.10;87.47;99192.88;5066110;28;20067;-79
2020/12/12 13:58:28;;;;;;;13.00;11.63;;;;;;;7.20;87.24;99205.25;5033817;28;20056;-78
2020/12/12 14:01:33;;;;;;;13.55;11.35;;;;;;;7.28;86.81;99209.03;5034650;28;20060;-78
2020/12/12 14:04:40;;;;;;;15.18;12.82;;;;;;;7.04;87.49;99207.63;5039966;28;20064;-79
2020/12/12 14:07:46;;;;;;;15.88;12.63;;;;;;;7.09;87.36;99208.03;5039004;28;20060;-79
2020/12/12 14:18:13;;;;;;;18.42;13.45;;;;;;;7.20;87.19;99218.59;5037647;28;20060;-77
2020/12/12 14:24:24;;;;;;;21.00;15.77;;;;;;;7.32;86.76;99227.28;5049403;28;20052;-81
2020/12/12 14:30:52;;;;;;;16.10;14.40;;;;;;;7.45;85.96;99240.34;5051142;28;20056;-79
2020/12/12 14:33:57;;;;;;;17.27;15.23;;;;;;;7.47;85.47;99244.53;5043683;28;20049;-79
2020/12/12 14:37:01;;;;;;;18.58;15.43;;;;;;;7.45;85.81;99243.84;5047064;28;20048;-77
2020/12/12 14:40:06;;;;;;;17.05;15.23;;;;;;;7.44;85.79;99247.50;5033753;28;20392;-80
2020/12/12 14:43:11;;;;;;;19.70;16.55;;;;;;;7.32;85.87;99248.63;5049484;28;20044;-79